sensor_id;sensor_type;location;lat;lon;timestamp;temperature;humidity
25939;DHT22;13739;51.172;4.466;2022-09-13T00:00:57;19.30;99.90
25939;DHT22;13739;51.172;4.466;2022-09-13T00:03:24;19.30;99.90
25939;DHT22;13739;51.172;4.466;2022-09-13T00:05:50;19.30;99.90
25939;DHT22;13739;51.172;4.466;2022-09-13T00:08:16;19.30;99.90
25939;DHT22;13739;51.172;4.466;2022-09-13T00:10:42;19.30;99.90
25939;DHT22;13739;51.172;4.466;2022-09-13T00:13:09;19.40;99.90
25939;DHT22;13739;51.172;4.466;2022-09-13T00:15:36;19.40;99.90
25939;DHT22;13739;51.172;4.466;2022-09-13T00:18:01;19.40;99.90
25939;DHT22;13739;51.172;4.466;2022-09-13T00:20:28;19.40;99.90
25939;DHT22;13739;51.172;4.466;2022-09-13T00:22:54;19.40;99.90
25939;DHT22;13739;51.172;4.466;2022-09-13T00:25:20;19.40;99.90
25939;DHT22;13739;51.172;4.466;2022-09-13T00:27:46;19.50;99.90
25939;DHT22;13739;51.172;4.466;2022-09-13T00:30:12;19.50;99.90
25939;DHT22;13739;51.172;4.466;2022-09-13T00:32:38;19.60;99.90
25939;DHT22;13739;51.172;4.466;2022-09-13T00:35:05;19.60;99.90
25939;DHT22;13739;51.172;4.466;2022-09-13T00:37:31;19.60;99.90
25939;DHT22;13739;51.172;4.466;2022-09-13T00:39:58;19.70;99.90
25939;DHT22;13739;51.172;4.466;2022-09-13T00:42:28;19.70;99.90
25939;DHT22;13739;51.172;4.466;2022-09-13T00:47:40;19.70;99.90
25939;DHT22;13739;51.172;4.466;2022-09-13T00:52:35;19.70;99.90
25939;DHT22;13739;51.172;4.466;2022-09-13T00:55:06;19.70;99.90
25939;DHT22;13739;51.172;4.466;2022-09-13T00:57:33;19.60;99.90
25939;DHT22;13739;51.172;4.466;2022-09-13T01:00:08;19.60;99.90
25939;DHT22;13739;51.172;4.466;2022-09-13T01:02:39;19.70;99.90
25939;DHT22;13739;51.172;4.466;2022-09-13T01:05:07;19.60;99.90
25939;DHT22;13739;51.172;4.466;2022-09-13T01:07:33;19.60;99.90
25939;DHT22;13739;51.172;4.466;2022-09-13T01:10:00;19.60;99.90
25939;DHT22;13739;51.172;4.466;2022-09-13T01:12:41;19.60;99.90
25939;DHT22;13739;51.172;4.466;2022-09-13T01:15:09;19.60;99.90
25939;DHT22;13739;51.172;4.466;2022-09-13T01:17:35;19.70;99.90
25939;DHT22;13739;51.172;4.466;2022-09-13T01:20:05;19.70;99.90
25939;DHT22;13739;51.172;4.466;2022-09-13T01:34:06;19.50;99.90
25939;DHT22;13739;51.172;4.466;2022-09-13T01:39:19;19.60;99.90
25939;DHT22;13739;51.172;4.466;2022-09-13T01:45:04;19.50;99.90
25939;DHT22;13739;51.172;4.466;2022-09-13T01:55:37;19.40;99.90
25939;DHT22;13739;51.172;4.466;2022-09-13T02:03:36;19.50;99.90
25939;DHT22;13739;51.172;4.466;2022-09-13T02:06:09;19.50;99.90
25939;DHT22;13739;51.172;4.466;2022-09-13T02:08:53;19.40;99.90
25939;DHT22;13739;51.172;4.466;2022-09-13T02:11:21;19.50;99.90
25939;DHT22;13739;51.172;4.466;2022-09-13T02:14:07;19.50;99.90
25939;DHT22;13739;51.172;4.466;2022-09-13T02:17:01;19.40;99.90
25939;DHT22;13739;51.172;4.466;2022-09-13T02:19:44;19.40;99.90
25939;DHT22;13739;51.172;4.466;2022-09-13T02:22:14;19.40;99.90
25939;DHT22;13739;51.172;4.466;2022-09-13T02:24:45;19.40;99.90
25939;DHT22;13739;51.172;4.466;2022-09-13T02:27:18;19.30;99.90
25939;DHT22;13739;51.172;4.466;2022-09-13T02:29:47;19.30;99.90
25939;DHT22;13739;51.172;4.466;2022-09-13T02:32:23;19.20;99.90
25939;DHT22;13739;51.172;4.466;2022-09-13T02:34:54;19.20;99.90
25939;DHT22;13739;51.172;4.466;2022-09-13T02:37:23;19.40;99.90
25939;DHT22;13739;51.172;4.466;2022-09-13T02:39:54;19.30;99.90
25939;DHT22;13739;51.172;4.466;2022-09-13T02:42:43;19.30;99.90
25939;DHT22;13739;51.172;4.466;2022-09-13T02:45:12;19.20;99.90
25939;DHT22;13739;51.172;4.466;2022-09-13T02:51:13;19.30;99.90
25939;DHT22;13739;51.172;4.466;2022-09-13T02:55:57;19.30;99.90
25939;DHT22;13739;51.172;4.466;2022-09-13T02:58:29;19.30;99.90
25939;DHT22;13739;51.172;4.466;2022-09-13T03:00:58;19.30;99.90
25939;DHT22;13739;51.172;4.466;2022-09-13T03:03:23;19.30;99.90
25939;DHT22;13739;51.172;4.466;2022-09-13T03:05:49;19.40;99.90
25939;DHT22;13739;51.172;4.466;2022-09-13T03:08:16;19.40;99.90
25939;DHT22;13739;51.172;4.466;2022-09-13T03:13:52;19.40;99.90
25939;DHT22;13739;51.172;4.466;2022-09-13T03:24:32;19.40;99.90
25939;DHT22;13739;51.172;4.466;2022-09-13T03:41:18;19.30;99.90
25939;DHT22;13739;51.172;4.466;2022-09-13T03:43:49;19.40;99.90
25939;DHT22;13739;51.172;4.466;2022-09-13T03:48:48;19.40;99.90
25939;DHT22;13739;51.172;4.466;2022-09-13T03:51:15;19.40;99.90
25939;DHT22;13739;51.172;4.466;2022-09-13T03:53:47;19.40;99.90
25939;DHT22;13739;51.172;4.466;2022-09-13T03:56:16;19.40;99.90
25939;DHT22;13739;51.172;4.466;2022-09-13T03:58:42;19.30;99.90
25939;DHT22;13739;51.172;4.466;2022-09-13T04:01:08;19.30;99.90
25939;DHT22;13739;51.172;4.466;2022-09-13T04:03:36;19.30;99.90
25939;DHT22;13739;51.172;4.466;2022-09-13T04:06:02;19.30;99.90
25939;DHT22;13739;51.172;4.466;2022-09-13T04:08:27;19.30;99.90
25939;DHT22;13739;51.172;4.466;2022-09-13T04:10:53;19.30;99.90
25939;DHT22;13739;51.172;4.466;2022-09-13T04:13:19;19.30;99.90
25939;DHT22;13739;51.172;4.466;2022-09-13T04:15:47;19.30;99.90
25939;DHT22;13739;51.172;4.466;2022-09-13T04:18:14;19.30;99.90
25939;DHT22;13739;51.172;4.466;2022-09-13T04:20:40;19.30;99.90
25939;DHT22;13739;51.172;4.466;2022-09-13T04:23:06;19.30;99.90
25939;DHT22;13739;51.172;4.466;2022-09-13T04:25:32;19.30;99.90
25939;DHT22;13739;51.172;4.466;2022-09-13T04:27:57;19.20;99.90
25939;DHT22;13739;51.172;4.466;2022-09-13T04:30:25;19.20;99.90
25939;DHT22;13739;51.172;4.466;2022-09-13T04:32:51;19.10;99.90
25939;DHT22;13739;51.172;4.466;2022-09-13T04:35:17;19.20;99.90
25939;DHT22;13739;51.172;4.466;2022-09-13T04:37:44;19.20;99.90
25939;DHT22;13739;51.172;4.466;2022-09-13T04:40:10;19.10;99.90
25939;DHT22;13739;51.172;4.466;2022-09-13T04:42:36;19.20;99.90
25939;DHT22;13739;51.172;4.466;2022-09-13T04:45:02;19.20;99.90
25939;DHT22;13739;51.172;4.466;2022-09-13T04:47:28;19.20;99.90
25939;DHT22;13739;51.172;4.466;2022-09-13T04:49:54;19.10;99.90
25939;DHT22;13739;51.172;4.466;2022-09-13T04:52:19;19.00;99.90
25939;DHT22;13739;51.172;4.466;2022-09-13T04:54:45;19.00;99.90
25939;DHT22;13739;51.172;4.466;2022-09-13T04:57:13;19.00;99.90
25939;DHT22;13739;51.172;4.466;2022-09-13T04:59:39;19.10;99.90
25939;DHT22;13739;51.172;4.466;2022-09-13T05:02:05;19.00;99.90
25939;DHT22;13739;51.172;4.466;2022-09-13T05:04:30;19.00;99.90
25939;DHT22;13739;51.172;4.466;2022-09-13T05:06:56;19.00;99.90
25939;DHT22;13739;51.172;4.466;2022-09-13T05:09:23;18.90;99.90
25939;DHT22;13739;51.172;4.466;2022-09-13T05:11:49;19.00;99.90
25939;DHT22;13739;51.172;4.466;2022-09-13T05:14:15;19.00;99.90
25939;DHT22;13739;51.172;4.466;2022-09-13T05:16:41;19.00;99.90
25939;DHT22;13739;51.172;4.466;2022-09-13T05:19:07;19.00;99.90
25939;DHT22;13739;51.172;4.466;2022-09-13T05:21:33;19.20;99.90
25939;DHT22;13739;51.172;4.466;2022-09-13T05:23:59;19.20;99.90
25939;DHT22;13739;51.172;4.466;2022-09-13T05:26:26;19.20;99.90
25939;DHT22;13739;51.172;4.466;2022-09-13T05:28:53;19.20;99.90
25939;DHT22;13739;51.172;4.466;2022-09-13T05:31:24;19.20;99.90
25939;DHT22;13739;51.172;4.466;2022-09-13T05:33:56;19.20;99.90
25939;DHT22;13739;51.172;4.466;2022-09-13T05:36:23;19.20;99.90
25939;DHT22;13739;51.172;4.466;2022-09-13T05:38:48;19.20;99.90
25939;DHT22;13739;51.172;4.466;2022-09-13T05:41:14;19.20;99.90
25939;DHT22;13739;51.172;4.466;2022-09-13T05:43:40;19.30;99.90
25939;DHT22;13739;51.172;4.466;2022-09-13T05:46:10;19.50;99.90
25939;DHT22;13739;51.172;4.466;2022-09-13T05:48:37;19.50;99.90
25939;DHT22;13739;51.172;4.466;2022-09-13T05:51:16;19.40;99.90
25939;DHT22;13739;51.172;4.466;2022-09-13T05:53:44;19.40;99.90
25939;DHT22;13739;51.172;4.466;2022-09-13T05:56:12;19.40;99.90
25939;DHT22;13739;51.172;4.466;2022-09-13T05:58:43;19.40;99.90
25939;DHT22;13739;51.172;4.466;2022-09-13T06:01:10;19.40;99.90
25939;DHT22;13739;51.172;4.466;2022-09-13T06:03:36;19.50;99.90
25939;DHT22;13739;51.172;4.466;2022-09-13T06:06:03;19.60;99.90
25939;DHT22;13739;51.172;4.466;2022-09-13T06:08:30;19.70;99.90
25939;DHT22;13739;51.172;4.466;2022-09-13T06:11:04;19.70;99.90
25939;DHT22;13739;51.172;4.466;2022-09-13T06:13:30;19.70;99.90
25939;DHT22;13739;51.172;4.466;2022-09-13T06:15:57;19.70;99.90
25939;DHT22;13739;51.172;4.466;2022-09-13T06:18:23;19.80;99.90
25939;DHT22;13739;51.172;4.466;2022-09-13T06:20:50;19.80;99.90
25939;DHT22;13739;51.172;4.466;2022-09-13T06:23:16;19.80;99.90
25939;DHT22;13739;51.172;4.466;2022-09-13T06:25:42;19.90;99.90
25939;DHT22;13739;51.172;4.466;2022-09-13T06:28:08;19.90;99.90
25939;DHT22;13739;51.172;4.466;2022-09-13T06:30:35;19.90;99.90
25939;DHT22;13739;51.172;4.466;2022-09-13T06:33:00;19.90;99.90
25939;DHT22;13739;51.172;4.466;2022-09-13T06:35:26;19.90;99.90
25939;DHT22;13739;51.172;4.466;2022-09-13T06:37:56;19.90;99.90
25939;DHT22;13739;51.172;4.466;2022-09-13T06:40:24;19.90;99.90
25939;DHT22;13739;51.172;4.466;2022-09-13T06:42:50;20.00;99.90
25939;DHT22;13739;51.172;4.466;2022-09-13T06:45:16;20.00;99.90
25939;DHT22;13739;51.172;4.466;2022-09-13T06:47:43;20.10;99.90
25939;DHT22;13739;51.172;4.466;2022-09-13T06:50:08;20.10;99.90
25939;DHT22;13739;51.172;4.466;2022-09-13T06:52:34;20.10;99.90
25939;DHT22;13739;51.172;4.466;2022-09-13T06:55:00;20.00;99.90
25939;DHT22;13739;51.172;4.466;2022-09-13T06:57:28;20.00;99.90
25939;DHT22;13739;51.172;4.466;2022-09-13T06:59:54;20.10;99.90
25939;DHT22;13739;51.172;4.466;2022-09-13T07:02:20;20.20;99.90
25939;DHT22;13739;51.172;4.466;2022-09-13T07:04:45;20.30;99.90
25939;DHT22;13739;51.172;4.466;2022-09-13T07:07:11;20.40;99.90
25939;DHT22;13739;51.172;4.466;2022-09-13T07:09:37;20.40;99.90
25939;DHT22;13739;51.172;4.466;2022-09-13T07:12:04;20.40;99.90
25939;DHT22;13739;51.172;4.466;2022-09-13T07:14:31;20.40;99.90
25939;DHT22;13739;51.172;4.466;2022-09-13T07:16:57;20.50;99.90
25939;DHT22;13739;51.172;4.466;2022-09-13T07:19:25;20.50;99.90
25939;DHT22;13739;51.172;4.466;2022-09-13T07:21:51;20.70;99.90
25939;DHT22;13739;51.172;4.466;2022-09-13T07:24:18;20.80;99.90
25939;DHT22;13739;51.172;4.466;2022-09-13T07:26:45;20.80;99.90
25939;DHT22;13739;51.172;4.466;2022-09-13T07:29:14;20.90;99.90
25939;DHT22;13739;51.172;4.466;2022-09-13T07:31:43;21.00;99.90
25939;DHT22;13739;51.172;4.466;2022-09-13T07:34:17;21.00;99.90
25939;DHT22;13739;51.172;4.466;2022-09-13T07:36:43;21.10;99.90
25939;DHT22;13739;51.172;4.466;2022-09-13T07:39:11;21.20;99.90
25939;DHT22;13739;51.172;4.466;2022-09-13T07:41:37;21.30;99.90
25939;DHT22;13739;51.172;4.466;2022-09-13T07:44:04;21.20;99.90
25939;DHT22;13739;51.172;4.466;2022-09-13T07:46:33;21.30;99.90
25939;DHT22;13739;51.172;4.466;2022-09-13T07:49:00;21.40;99.90
25939;DHT22;13739;51.172;4.466;2022-09-13T07:51:35;21.50;99.90
25939;DHT22;13739;51.172;4.466;2022-09-13T07:54:08;21.60;99.90
25939;DHT22;13739;51.172;4.466;2022-09-13T07:56:36;21.80;99.90
25939;DHT22;13739;51.172;4.466;2022-09-13T07:59:05;21.90;99.90
25939;DHT22;13739;51.172;4.466;2022-09-13T08:01:40;22.10;99.90
25939;DHT22;13739;51.172;4.466;2022-09-13T08:04:08;22.20;99.90
25939;DHT22;13739;51.172;4.466;2022-09-13T08:06:36;22.30;99.90
25939;DHT22;13739;51.172;4.466;2022-09-13T08:09:03;22.40;99.90
25939;DHT22;13739;51.172;4.466;2022-09-13T08:11:37;22.30;99.90
25939;DHT22;13739;51.172;4.466;2022-09-13T08:14:04;22.50;99.90
25939;DHT22;13739;51.172;4.466;2022-09-13T08:16:30;22.50;99.90
25939;DHT22;13739;51.172;4.466;2022-09-13T08:18:59;22.50;99.90
25939;DHT22;13739;51.172;4.466;2022-09-13T08:21:25;22.90;99.90
25939;DHT22;13739;51.172;4.466;2022-09-13T08:23:55;22.80;99.90
25939;DHT22;13739;51.172;4.466;2022-09-13T08:26:21;23.10;99.90
25939;DHT22;13739;51.172;4.466;2022-09-13T08:28:47;23.00;99.90
25939;DHT22;13739;51.172;4.466;2022-09-13T08:31:14;22.50;99.90
25939;DHT22;13739;51.172;4.466;2022-09-13T08:33:43;22.60;99.90
25939;DHT22;13739;51.172;4.466;2022-09-13T08:36:09;23.00;99.90
25939;DHT22;13739;51.172;4.466;2022-09-13T08:38:35;23.20;99.90
25939;DHT22;13739;51.172;4.466;2022-09-13T08:46:43;23.40;99.90
25939;DHT22;13739;51.172;4.466;2022-09-13T08:49:16;23.40;99.90
25939;DHT22;13739;51.172;4.466;2022-09-13T08:54:17;23.40;99.90
25939;DHT22;13739;51.172;4.466;2022-09-13T08:57:08;23.30;99.90
25939;DHT22;13739;51.172;4.466;2022-09-13T08:59:49;23.40;99.90
25939;DHT22;13739;51.172;4.466;2022-09-13T09:04:45;23.50;99.90
25939;DHT22;13739;51.172;4.466;2022-09-13T09:07:16;23.60;99.90
25939;DHT22;13739;51.172;4.466;2022-09-13T09:09:57;23.60;99.90
25939;DHT22;13739;51.172;4.466;2022-09-13T09:15:24;23.70;99.90
25939;DHT22;13739;51.172;4.466;2022-09-13T09:20:30;23.60;99.90
25939;DHT22;13739;51.172;4.466;2022-09-13T09:23:05;23.60;99.90
25939;DHT22;13739;51.172;4.466;2022-09-13T09:25:33;23.70;99.90
25939;DHT22;13739;51.172;4.466;2022-09-13T09:27:59;23.60;99.90
25939;DHT22;13739;51.172;4.466;2022-09-13T09:30:44;23.60;99.90
25939;DHT22;13739;51.172;4.466;2022-09-13T09:38:48;23.40;99.90
25939;DHT22;13739;51.172;4.466;2022-09-13T09:46:57;23.80;99.90
25939;DHT22;13739;51.172;4.466;2022-09-13T09:49:38;23.60;99.90
25939;DHT22;13739;51.172;4.466;2022-09-13T09:52:29;23.70;99.90
25939;DHT22;13739;51.172;4.466;2022-09-13T09:55:00;23.80;99.90
25939;DHT22;13739;51.172;4.466;2022-09-13T09:57:51;23.80;99.90
25939;DHT22;13739;51.172;4.466;2022-09-13T10:00:17;23.90;99.90
25939;DHT22;13739;51.172;4.466;2022-09-13T10:02:43;23.90;99.90
25939;DHT22;13739;51.172;4.466;2022-09-13T10:05:10;23.90;99.90
25939;DHT22;13739;51.172;4.466;2022-09-13T10:07:40;23.90;99.90
25939;DHT22;13739;51.172;4.466;2022-09-13T10:10:18;23.90;99.90
25939;DHT22;13739;51.172;4.466;2022-09-13T10:12:53;23.90;99.90
25939;DHT22;13739;51.172;4.466;2022-09-13T10:15:25;23.90;99.90
25939;DHT22;13739;51.172;4.466;2022-09-13T10:18:02;24.00;99.90
25939;DHT22;13739;51.172;4.466;2022-09-13T10:20:28;23.90;99.90
25939;DHT22;13739;51.172;4.466;2022-09-13T10:25:54;24.00;99.90
25939;DHT22;13739;51.172;4.466;2022-09-13T10:28:21;24.00;99.90
25939;DHT22;13739;51.172;4.466;2022-09-13T10:30:53;24.10;99.90
25939;DHT22;13739;51.172;4.466;2022-09-13T10:33:26;24.10;99.90
25939;DHT22;13739;51.172;4.466;2022-09-13T10:35:58;24.10;99.90
25939;DHT22;13739;51.172;4.466;2022-09-13T10:38:30;24.10;99.90
25939;DHT22;13739;51.172;4.466;2022-09-13T10:40:58;24.10;99.90
25939;DHT22;13739;51.172;4.466;2022-09-13T10:43:27;24.20;99.90
25939;DHT22;13739;51.172;4.466;2022-09-13T10:45:54;24.10;99.90
25939;DHT22;13739;51.172;4.466;2022-09-13T10:48:21;24.10;99.90
25939;DHT22;13739;51.172;4.466;2022-09-13T10:53:39;24.40;99.90
25939;DHT22;13739;51.172;4.466;2022-09-13T10:56:17;24.40;99.90
25939;DHT22;13739;51.172;4.466;2022-09-13T10:58:43;24.50;99.90
25939;DHT22;13739;51.172;4.466;2022-09-13T11:01:31;24.60;99.90
25939;DHT22;13739;51.172;4.466;2022-09-13T11:04:27;24.80;99.90
25939;DHT22;13739;51.172;4.466;2022-09-13T11:10:02;25.00;99.90
25939;DHT22;13739;51.172;4.466;2022-09-13T11:15:30;25.00;99.90
25939;DHT22;13739;51.172;4.466;2022-09-13T11:21:20;25.10;99.90
25939;DHT22;13739;51.172;4.466;2022-09-13T11:24:04;25.00;99.90
25939;DHT22;13739;51.172;4.466;2022-09-13T11:26:43;25.10;99.90
25939;DHT22;13739;51.172;4.466;2022-09-13T11:37:25;25.80;99.90
25939;DHT22;13739;51.172;4.466;2022-09-13T11:40:24;26.00;99.90
25939;DHT22;13739;51.172;4.466;2022-09-13T11:43:04;26.40;99.90
25939;DHT22;13739;51.172;4.466;2022-09-13T11:45:43;26.40;99.90
25939;DHT22;13739;51.172;4.466;2022-09-13T11:48:46;26.60;99.90
25939;DHT22;13739;51.172;4.466;2022-09-13T11:56:40;26.00;99.90
25939;DHT22;13739;51.172;4.466;2022-09-13T11:59:36;26.10;99.90
25939;DHT22;13739;51.172;4.466;2022-09-13T12:02:17;26.10;99.90
25939;DHT22;13739;51.172;4.466;2022-09-13T12:04:55;25.60;99.90
25939;DHT22;13739;51.172;4.466;2022-09-13T12:10:22;26.00;99.90
25939;DHT22;13739;51.172;4.466;2022-09-13T12:12:50;26.10;99.90
25939;DHT22;13739;51.172;4.466;2022-09-13T12:15:40;26.30;99.90
25939;DHT22;13739;51.172;4.466;2022-09-13T12:18:32;26.40;99.90
25939;DHT22;13739;51.172;4.466;2022-09-13T12:21:13;26.10;99.90
25939;DHT22;13739;51.172;4.466;2022-09-13T12:29:17;26.50;99.90
25939;DHT22;13739;51.172;4.466;2022-09-13T12:31:45;26.50;99.90
25939;DHT22;13739;51.172;4.466;2022-09-13T12:34:24;26.60;99.90
25939;DHT22;13739;51.172;4.466;2022-09-13T12:37:20;26.40;99.90
25939;DHT22;13739;51.172;4.466;2022-09-13T12:51:35;26.30;99.90
25939;DHT22;13739;51.172;4.466;2022-09-13T13:02:02;26.20;99.90
25939;DHT22;13739;51.172;4.466;2022-09-13T13:04:33;26.10;99.90
25939;DHT22;13739;51.172;4.466;2022-09-13T13:07:05;26.30;99.90
25939;DHT22;13739;51.172;4.466;2022-09-13T13:09:43;26.30;99.90
25939;DHT22;13739;51.172;4.466;2022-09-13T13:12:11;26.30;99.90
25939;DHT22;13739;51.172;4.466;2022-09-13T13:14:49;26.40;99.90
25939;DHT22;13739;51.172;4.466;2022-09-13T13:17:44;26.40;99.90
25939;DHT22;13739;51.172;4.466;2022-09-13T13:23:30;26.20;99.90
25939;DHT22;13739;51.172;4.466;2022-09-13T13:36:26;25.80;99.90
25939;DHT22;13739;51.172;4.466;2022-09-13T13:38:59;25.70;99.90
25939;DHT22;13739;51.172;4.466;2022-09-13T13:44:00;25.40;99.90
25939;DHT22;13739;51.172;4.466;2022-09-13T13:46:28;24.90;99.90
25939;DHT22;13739;51.172;4.466;2022-09-13T13:48:54;24.70;99.90
25939;DHT22;13739;51.172;4.466;2022-09-13T13:51:23;24.70;99.90
25939;DHT22;13739;51.172;4.466;2022-09-13T13:53:56;24.60;99.90
25939;DHT22;13739;51.172;4.466;2022-09-13T13:56:24;24.60;99.90
25939;DHT22;13739;51.172;4.466;2022-09-13T13:59:04;24.40;99.90
25939;DHT22;13739;51.172;4.466;2022-09-13T14:01:33;24.20;99.90
25939;DHT22;13739;51.172;4.466;2022-09-13T14:04:15;24.00;99.90
25939;DHT22;13739;51.172;4.466;2022-09-13T14:07:00;24.00;99.90
25939;DHT22;13739;51.172;4.466;2022-09-13T14:09:38;24.10;99.90
25939;DHT22;13739;51.172;4.466;2022-09-13T14:20:24;23.90;99.90
25939;DHT22;13739;51.172;4.466;2022-09-13T14:22:50;23.60;99.90
25939;DHT22;13739;51.172;4.466;2022-09-13T14:27:46;23.70;99.90
25939;DHT22;13739;51.172;4.466;2022-09-13T14:30:22;23.70;99.90
25939;DHT22;13739;51.172;4.466;2022-09-13T14:32:51;23.70;99.90
25939;DHT22;13739;51.172;4.466;2022-09-13T14:35:36;23.60;99.90
25939;DHT22;13739;51.172;4.466;2022-09-13T14:40:51;23.40;99.90
25939;DHT22;13739;51.172;4.466;2022-09-13T14:43:22;23.50;99.90
25939;DHT22;13739;51.172;4.466;2022-09-13T14:45:52;23.50;99.90
25939;DHT22;13739;51.172;4.466;2022-09-13T14:48:29;23.40;99.90
25939;DHT22;13739;51.172;4.466;2022-09-13T14:50:59;23.40;99.90
25939;DHT22;13739;51.172;4.466;2022-09-13T14:53:30;23.40;99.90
25939;DHT22;13739;51.172;4.466;2022-09-13T14:56:29;23.20;99.90
25939;DHT22;13739;51.172;4.466;2022-09-13T14:58:58;23.30;99.90
25939;DHT22;13739;51.172;4.466;2022-09-13T15:01:32;23.30;99.90
25939;DHT22;13739;51.172;4.466;2022-09-13T15:03:59;23.40;99.90
25939;DHT22;13739;51.172;4.466;2022-09-13T15:06:28;23.30;99.90
25939;DHT22;13739;51.172;4.466;2022-09-13T15:09:00;23.30;99.90
25939;DHT22;13739;51.172;4.466;2022-09-13T15:11:55;23.40;99.90
25939;DHT22;13739;51.172;4.466;2022-09-13T15:14:31;23.10;99.90
25939;DHT22;13739;51.172;4.466;2022-09-13T15:19:40;23.20;99.90
25939;DHT22;13739;51.172;4.466;2022-09-13T15:22:29;23.20;99.90
25939;DHT22;13739;51.172;4.466;2022-09-13T15:24:57;23.10;99.90
25939;DHT22;13739;51.172;4.466;2022-09-13T15:27:29;23.20;99.90
25939;DHT22;13739;51.172;4.466;2022-09-13T15:30:00;23.20;99.90
25939;DHT22;13739;51.172;4.466;2022-09-13T15:32:33;23.10;99.90
25939;DHT22;13739;51.172;4.466;2022-09-13T15:35:00;23.30;99.90
25939;DHT22;13739;51.172;4.466;2022-09-13T15:37:36;23.20;99.90
25939;DHT22;13739;51.172;4.466;2022-09-13T15:40:22;23.10;99.90
25939;DHT22;13739;51.172;4.466;2022-09-13T15:42:49;23.00;99.90
25939;DHT22;13739;51.172;4.466;2022-09-13T15:45:17;23.00;99.90
25939;DHT22;13739;51.172;4.466;2022-09-13T15:47:50;23.00;99.90
25939;DHT22;13739;51.172;4.466;2022-09-13T15:50:24;23.00;99.90
25939;DHT22;13739;51.172;4.466;2022-09-13T15:52:52;23.00;99.90
25939;DHT22;13739;51.172;4.466;2022-09-13T15:55:18;23.00;99.90
25939;DHT22;13739;51.172;4.466;2022-09-13T15:57:44;23.10;99.90
25939;DHT22;13739;51.172;4.466;2022-09-13T16:00:21;23.00;99.90
25939;DHT22;13739;51.172;4.466;2022-09-13T16:02:48;22.90;99.90
25939;DHT22;13739;51.172;4.466;2022-09-13T16:05:14;23.00;99.90
25939;DHT22;13739;51.172;4.466;2022-09-13T16:07:40;23.10;99.90
25939;DHT22;13739;51.172;4.466;2022-09-13T16:10:20;23.10;99.90
25939;DHT22;13739;51.172;4.466;2022-09-13T16:12:47;23.10;99.90
25939;DHT22;13739;51.172;4.466;2022-09-13T16:15:12;23.10;99.90
25939;DHT22;13739;51.172;4.466;2022-09-13T16:17:39;23.30;99.90
25939;DHT22;13739;51.172;4.466;2022-09-13T16:20:05;23.30;99.90
25939;DHT22;13739;51.172;4.466;2022-09-13T16:22:33;23.30;99.90
25939;DHT22;13739;51.172;4.466;2022-09-13T16:24:58;23.40;99.90
25939;DHT22;13739;51.172;4.466;2022-09-13T16:27:24;23.20;99.90
25939;DHT22;13739;51.172;4.466;2022-09-13T16:29:51;23.20;99.90
25939;DHT22;13739;51.172;4.466;2022-09-13T16:32:17;23.30;99.90
25939;DHT22;13739;51.172;4.466;2022-09-13T16:34:43;22.90;99.90
25939;DHT22;13739;51.172;4.466;2022-09-13T16:37:15;22.90;99.90
25939;DHT22;13739;51.172;4.466;2022-09-13T16:39:41;22.80;99.90
25939;DHT22;13739;51.172;4.466;2022-09-13T16:42:07;22.70;99.90
25939;DHT22;13739;51.172;4.466;2022-09-13T16:44:33;22.70;99.90
25939;DHT22;13739;51.172;4.466;2022-09-13T16:46:58;22.80;99.90
25939;DHT22;13739;51.172;4.466;2022-09-13T16:49:25;22.70;99.90
25939;DHT22;13739;51.172;4.466;2022-09-13T16:51:50;22.60;99.90
25939;DHT22;13739;51.172;4.466;2022-09-13T16:54:16;22.70;99.90
25939;DHT22;13739;51.172;4.466;2022-09-13T16:56:42;22.70;99.90
25939;DHT22;13739;51.172;4.466;2022-09-13T16:59:07;22.70;99.90
25939;DHT22;13739;51.172;4.466;2022-09-13T17:01:33;22.70;99.90
25939;DHT22;13739;51.172;4.466;2022-09-13T17:03:59;22.70;99.90
25939;DHT22;13739;51.172;4.466;2022-09-13T17:06:25;22.90;99.90
25939;DHT22;13739;51.172;4.466;2022-09-13T17:08:54;23.00;99.90
25939;DHT22;13739;51.172;4.466;2022-09-13T17:11:22;22.80;99.90
25939;DHT22;13739;51.172;4.466;2022-09-13T17:13:48;22.90;99.90
25939;DHT22;13739;51.172;4.466;2022-09-13T17:16:32;22.70;99.90
25939;DHT22;13739;51.172;4.466;2022-09-13T17:19:01;22.30;99.90
25939;DHT22;13739;51.172;4.466;2022-09-13T17:21:27;22.00;99.90
25939;DHT22;13739;51.172;4.466;2022-09-13T17:23:54;21.90;99.90
25939;DHT22;13739;51.172;4.466;2022-09-13T17:26:20;22.00;99.90
25939;DHT22;13739;51.172;4.466;2022-09-13T17:28:45;22.10;99.90
25939;DHT22;13739;51.172;4.466;2022-09-13T17:31:11;22.20;99.90
25939;DHT22;13739;51.172;4.466;2022-09-13T17:33:37;22.20;99.90
25939;DHT22;13739;51.172;4.466;2022-09-13T17:36:07;22.10;99.90
25939;DHT22;13739;51.172;4.466;2022-09-13T17:38:37;22.00;99.90
25939;DHT22;13739;51.172;4.466;2022-09-13T17:41:08;21.90;99.90
25939;DHT22;13739;51.172;4.466;2022-09-13T17:43:35;22.00;99.90
25939;DHT22;13739;51.172;4.466;2022-09-13T17:46:13;22.10;99.90
25939;DHT22;13739;51.172;4.466;2022-09-13T17:48:39;21.90;99.90
25939;DHT22;13739;51.172;4.466;2022-09-13T17:51:13;21.80;99.90
25939;DHT22;13739;51.172;4.466;2022-09-13T17:53:42;21.60;99.90
25939;DHT22;13739;51.172;4.466;2022-09-13T17:56:08;21.40;99.90
25939;DHT22;13739;51.172;4.466;2022-09-13T17:58:35;21.20;99.90
25939;DHT22;13739;51.172;4.466;2022-09-13T18:01:06;21.30;99.90
25939;DHT22;13739;51.172;4.466;2022-09-13T18:03:32;21.30;99.90
25939;DHT22;13739;51.172;4.466;2022-09-13T18:06:00;21.50;99.90
25939;DHT22;13739;51.172;4.466;2022-09-13T18:08:28;21.60;99.90
25939;DHT22;13739;51.172;4.466;2022-09-13T18:11:03;21.60;99.90
25939;DHT22;13739;51.172;4.466;2022-09-13T18:13:29;21.40;99.90
25939;DHT22;13739;51.172;4.466;2022-09-13T18:15:59;21.30;99.90
25939;DHT22;13739;51.172;4.466;2022-09-13T18:18:26;21.30;99.90
25939;DHT22;13739;51.172;4.466;2022-09-13T18:20:51;21.30;99.90
25939;DHT22;13739;51.172;4.466;2022-09-13T18:23:17;21.30;99.90
25939;DHT22;13739;51.172;4.466;2022-09-13T18:25:43;21.10;99.90
25939;DHT22;13739;51.172;4.466;2022-09-13T18:28:09;21.00;99.90
25939;DHT22;13739;51.172;4.466;2022-09-13T18:30:35;20.80;99.90
25939;DHT22;13739;51.172;4.466;2022-09-13T18:33:00;20.60;99.90
25939;DHT22;13739;51.172;4.466;2022-09-13T18:35:26;20.50;99.90
25939;DHT22;13739;51.172;4.466;2022-09-13T18:37:52;20.50;99.90
25939;DHT22;13739;51.172;4.466;2022-09-13T18:40:18;20.30;99.90
25939;DHT22;13739;51.172;4.466;2022-09-13T18:42:44;20.30;99.90
25939;DHT22;13739;51.172;4.466;2022-09-13T18:45:09;20.40;99.90
25939;DHT22;13739;51.172;4.466;2022-09-13T18:47:35;20.50;99.90
25939;DHT22;13739;51.172;4.466;2022-09-13T18:50:00;20.40;99.90
25939;DHT22;13739;51.172;4.466;2022-09-13T18:52:26;20.40;99.90
25939;DHT22;13739;51.172;4.466;2022-09-13T18:54:52;20.50;99.90